createdAt,value
2022-09-15T00:00:53.564Z,4.87
2022-09-15T00:03:56.211Z,5.33
2022-09-15T00:06:59.259Z,5.33
2022-09-15T00:10:03.384Z,5.10
2022-09-15T00:13:07.899Z,6.80
2022-09-15T00:16:15.057Z,7.77
2022-09-15T00:19:18.504Z,6.17
2022-09-15T00:22:21.391Z,4.10
2022-09-15T00:25:24.584Z,4.33
2022-09-15T00:28:28.921Z,4.07
2022-09-15T00:31:33.867Z,4.70
2022-09-15T00:34:36.734Z,4.70
2022-09-15T00:37:39.849Z,4.23
2022-09-15T00:40:46.782Z,4.23
2022-09-15T00:43:55.257Z,4.80
2022-09-15T00:47:18.140Z,4.43
2022-09-15T00:50:23.142Z,4.40
2022-09-15T00:53:27.313Z,4.23
2022-09-15T00:56:32.144Z,4.37
2022-09-15T00:59:40.163Z,5.20
2022-09-15T01:02:45.180Z,5.43
2022-09-15T01:05:53.746Z,5.80
2022-09-15T01:09:03.109Z,6.07
2022-09-15T01:12:06.065Z,7.77
2022-09-15T01:15:11.077Z,7.27
2022-09-15T01:18:19.501Z,6.63
2022-09-15T01:21:29.386Z,6.60
2022-09-15T01:24:47.467Z,6.17
2022-09-15T01:28:24.507Z,6.30
2022-09-15T01:31:32.411Z,7.07
2022-09-15T01:34:41.899Z,6.90
2022-09-15T01:37:50.462Z,7.13
2022-09-15T01:41:00.076Z,6.37
2022-09-15T01:44:07.915Z,6.37
2022-09-15T01:47:16.465Z,6.47
2022-09-15T01:50:23.120Z,5.10
2022-09-15T01:53:27.012Z,5.13
2022-09-15T01:56:30.132Z,5.03
2022-09-15T01:59:33.329Z,5.60
2022-09-15T02:02:42.609Z,4.90
2022-09-15T02:05:49.785Z,4.73
2022-09-15T02:08:57.664Z,4.47
2022-09-15T02:12:09.597Z,5.03
2022-09-15T02:15:15.386Z,5.03
2022-09-15T02:18:29.666Z,5.30
2022-09-15T02:21:37.320Z,5.03
2022-09-15T02:24:43.202Z,4.90
2022-09-15T02:27:51.017Z,5.00
2022-09-15T02:30:57.811Z,5.30
2022-09-15T02:34:06.774Z,5.10
2022-09-15T02:37:11.518Z,4.97
2022-09-15T02:40:14.323Z,5.07
2022-09-15T02:43:19.665Z,5.50
2022-09-15T02:46:23.570Z,5.27
2022-09-15T02:49:27.985Z,5.30
2022-09-15T02:52:30.629Z,6.00
2022-09-15T02:55:34.259Z,6.70
2022-09-15T02:58:36.924Z,6.50
2022-09-15T03:01:41.202Z,7.00
2022-09-15T03:04:45.260Z,5.93
2022-09-15T03:07:48.197Z,4.80
2022-09-15T03:10:50.845Z,4.80
2022-09-15T03:13:55.600Z,5.03
2022-09-15T03:16:58.795Z,4.80
2022-09-15T03:20:03.636Z,4.93
2022-09-15T03:23:06.223Z,4.80
2022-09-15T03:26:10.834Z,4.53
2022-09-15T03:29:13.803Z,4.30
2022-09-15T03:32:17.005Z,3.57
2022-09-15T03:35:20.996Z,5.03
2022-09-15T03:38:25.175Z,3.07
2022-09-15T03:41:29.627Z,3.40
2022-09-15T03:44:32.398Z,2.90
2022-09-15T03:47:34.994Z,3.43
2022-09-15T03:50:39.376Z,0.10
2022-09-15T03:53:42.912Z,0.07
2022-09-15T03:56:47.760Z,0.00
2022-09-15T03:59:50.463Z,0.20
2022-09-15T04:02:53.217Z,0.00
2022-09-15T04:05:57.277Z,0.00
2022-09-15T04:09:00.645Z,0.00
2022-09-15T04:12:03.760Z,0.00
2022-09-15T04:15:08.187Z,0.00
2022-09-15T04:18:11.219Z,0.00
2022-09-15T04:21:17.181Z,0.00
2022-09-15T04:24:19.846Z,0.00
2022-09-15T04:27:23.545Z,0.00
2022-09-15T04:30:26.198Z,0.20
2022-09-15T04:33:28.923Z,0.00
2022-09-15T04:36:32.942Z,0.00
2022-09-15T04:39:35.732Z,0.00
2022-09-15T04:42:38.369Z,0.00
2022-09-15T04:45:41.368Z,0.00
2022-09-15T04:48:45.513Z,0.00
2022-09-15T04:51:49.537Z,0.00
2022-09-15T04:54:52.791Z,0.00
2022-09-15T04:57:56.192Z,0.00
2022-09-15T05:00:59.719Z,0.00
2022-09-15T05:04:04.659Z,0.00
2022-09-15T05:07:08.658Z,0.00
2022-09-15T05:10:11.406Z,0.00
2022-09-15T05:13:14.094Z,0.00
2022-09-15T05:16:19.338Z,0.00
2022-09-15T05:19:22.094Z,0.00
2022-09-15T05:22:26.858Z,0.00
2022-09-15T05:25:30.719Z,0.00
2022-09-15T05:28:35.805Z,0.10
2022-09-15T05:31:38.676Z,0.00
2022-09-15T05:34:41.860Z,0.00
2022-09-15T05:37:45.895Z,0.20
2022-09-15T05:40:49.026Z,0.00
2022-09-15T05:43:52.283Z,0.00
2022-09-15T05:46:55.051Z,0.00
2022-09-15T05:49:58.200Z,0.00
2022-09-15T05:53:02.500Z,0.40
2022-09-15T05:56:06.692Z,0.00
2022-09-15T05:59:10.925Z,0.00
2022-09-15T06:02:14.037Z,0.10
2022-09-15T06:05:16.940Z,0.00
2022-09-15T06:08:21.241Z,0.00
2022-09-15T06:11:26.229Z,0.00
2022-09-15T06:14:28.912Z,0.13
2022-09-15T06:17:32.805Z,0.00
2022-09-15T06:20:36.801Z,0.00
2022-09-15T06:23:41.217Z,0.00
2022-09-15T06:26:44.251Z,0.20
2022-09-15T06:29:46.876Z,0.40
2022-09-15T06:32:50.093Z,0.00
2022-09-15T06:35:52.713Z,0.00
2022-09-15T06:38:57.692Z,0.10
2022-09-15T06:42:03.219Z,0.13
2022-09-15T06:45:07.895Z,0.00
2022-09-15T06:48:23.996Z,0.00
2022-09-15T06:51:29.104Z,0.10
2022-09-15T06:54:33.056Z,0.00
2022-09-15T06:57:36.426Z,0.00
2022-09-15T07:00:39.141Z,0.10
2022-09-15T07:03:44.749Z,0.30
2022-09-15T07:06:49.326Z,0.10
2022-09-15T07:09:53.277Z,0.00
2022-09-15T07:12:56.334Z,0.00
2022-09-15T07:16:01.005Z,0.00
2022-09-15T07:19:05.264Z,0.10
2022-09-15T07:22:08.923Z,0.00
2022-09-15T07:25:13.395Z,0.00
2022-09-15T07:28:16.662Z,0.00
2022-09-15T07:31:21.698Z,0.00
2022-09-15T07:34:24.894Z,0.00
2022-09-15T07:37:27.534Z,0.00
2022-09-15T07:40:31.859Z,0.00
2022-09-15T07:43:35.223Z,0.00
2022-09-15T07:46:38.064Z,0.00
2022-09-15T07:49:41.152Z,0.10
2022-09-15T07:52:43.813Z,0.10
2022-09-15T07:55:53.436Z,0.23
2022-09-15T07:58:56.460Z,0.00
2022-09-15T08:01:59.213Z,0.00
2022-09-15T08:05:02.328Z,0.10
2022-09-15T08:08:05.909Z,0.20
2022-09-15T08:11:16.346Z,0.10
2022-09-15T08:14:21.649Z,0.00
2022-09-15T08:17:24.879Z,0.43
2022-09-15T08:20:27.579Z,0.00
2022-09-15T08:23:30.665Z,0.00
2022-09-15T08:26:36.740Z,0.00
2022-09-15T08:29:39.912Z,0.07
2022-09-15T08:32:42.968Z,0.10
2022-09-15T08:35:45.727Z,0.00
2022-09-15T08:38:49.491Z,0.00
2022-09-15T08:41:54.915Z,0.00
2022-09-15T08:45:02.094Z,0.00
2022-09-15T08:48:08.437Z,0.20
2022-09-15T08:51:17.243Z,0.50
2022-09-15T08:54:22.611Z,0.20
2022-09-15T08:57:27.966Z,0.03
2022-09-15T09:00:32.138Z,0.17
2022-09-15T09:04:00.683Z,0.10
2022-09-15T09:07:18.010Z,0.00
2022-09-15T09:10:29.572Z,0.00
2022-09-15T09:13:40.497Z,0.10
2022-09-15T09:16:57.127Z,0.30
2022-09-15T09:20:23.865Z,0.20
2022-09-15T09:23:29.410Z,0.00
2022-09-15T09:26:34.465Z,0.00
2022-09-15T09:29:43.488Z,0.00
2022-09-15T09:32:51.306Z,0.00
2022-09-15T09:35:54.356Z,0.40
2022-09-15T09:38:58.980Z,0.13
2022-09-15T09:42:02.735Z,0.00
2022-09-15T09:45:08.359Z,0.00
2022-09-15T09:48:18.626Z,0.00
2022-09-15T09:51:33.363Z,0.00
2022-09-15T09:54:36.572Z,0.00
2022-09-15T09:57:40.797Z,0.00
2022-09-15T10:00:45.188Z,0.20
2022-09-15T10:03:48.084Z,0.00
2022-09-15T10:06:50.877Z,0.00
2022-09-15T10:09:56.471Z,0.23
2022-09-15T10:13:02.713Z,0.00
2022-09-15T10:16:07.834Z,0.97
2022-09-15T10:19:15.055Z,2.13
2022-09-15T10:22:28.440Z,1.90
2022-09-15T10:25:49.658Z,2.60
2022-09-15T10:29:13.766Z,2.07
2022-09-15T10:32:26.359Z,2.33
2022-09-15T10:35:34.105Z,1.97
2022-09-15T10:38:48.055Z,1.70
2022-09-15T10:41:57.859Z,1.80
2022-09-15T10:45:15.806Z,1.80
2022-09-15T10:48:34.971Z,1.87
2022-09-15T10:51:51.879Z,1.63
2022-09-15T10:55:36.786Z,1.77
2022-09-15T10:59:03.984Z,1.40
2022-09-15T11:02:23.773Z,1.97
2022-09-15T11:05:42.290Z,1.60
2022-09-15T11:09:03.835Z,1.60
2022-09-15T11:12:25.889Z,1.30
2022-09-15T11:15:43.393Z,1.80
2022-09-15T11:19:03.602Z,1.30
2022-09-15T11:22:13.101Z,1.30
2022-09-15T11:25:20.225Z,1.30
2022-09-15T11:28:27.753Z,1.50
2022-09-15T11:31:35.427Z,1.53
2022-09-15T11:34:45.477Z,1.70
2022-09-15T11:37:52.690Z,1.60
2022-09-15T11:41:00.411Z,1.87
2022-09-15T11:44:16.843Z,1.70
2022-09-15T11:47:28.974Z,1.47
2022-09-15T11:50:35.780Z,1.50
2022-09-15T11:53:45.562Z,1.60
2022-09-15T11:56:49.389Z,1.20
2022-09-15T11:59:58.761Z,1.43
2022-09-15T12:03:15.058Z,1.43
2022-09-15T12:06:22.608Z,1.40
2022-09-15T12:09:26.985Z,1.53
2022-09-15T12:12:30.874Z,1.17
2022-09-15T12:15:34.617Z,1.30
2022-09-15T12:18:46.199Z,1.23
2022-09-15T12:21:54.221Z,1.87
2022-09-15T12:25:03.489Z,1.07
2022-09-15T12:28:38.181Z,1.10
2022-09-15T12:31:41.605Z,1.00
2022-09-15T12:34:57.261Z,1.10
2022-09-15T12:38:01.373Z,1.10
2022-09-15T12:41:05.566Z,1.10
2022-09-15T12:44:21.759Z,0.90
2022-09-15T12:47:30.126Z,1.10
2022-09-15T12:50:36.229Z,1.00
2022-09-15T12:53:50.640Z,1.00
2022-09-15T12:56:56.505Z,1.33
2022-09-15T13:00:29.857Z,1.47
2022-09-15T13:04:08.602Z,1.20
2022-09-15T13:07:33.419Z,1.20
2022-09-15T13:10:39.604Z,1.20
2022-09-15T13:13:48.296Z,1.50
2022-09-15T13:16:57.214Z,1.20
2022-09-15T13:20:08.180Z,1.67
2022-09-15T13:23:16.902Z,1.30
2022-09-15T13:26:24.182Z,1.40
2022-09-15T13:29:32.786Z,1.80
2022-09-15T13:32:44.799Z,1.70
2022-09-15T13:36:07.940Z,1.90
2022-09-15T13:39:28.868Z,2.03
2022-09-15T13:42:42.430Z,1.80
2022-09-15T13:45:57.391Z,1.53
2022-09-15T13:49:21.616Z,1.30
2022-09-15T13:52:37.945Z,1.37
2022-09-15T13:55:44.298Z,1.77
2022-09-15T13:59:00.315Z,1.80
2022-09-15T14:02:09.627Z,2.03
2022-09-15T14:05:13.502Z,1.90
2022-09-15T14:08:20.680Z,2.40
2022-09-15T14:11:27.640Z,2.07
2022-09-15T14:14:37.126Z,2.23
2022-09-15T14:17:46.847Z,2.70
2022-09-15T14:20:58.715Z,2.47
2022-09-15T14:24:05.985Z,2.90
2022-09-15T14:27:10.849Z,3.07
2022-09-15T14:30:20.662Z,3.13
2022-09-15T14:33:25.160Z,3.10
2022-09-15T14:36:31.059Z,4.20
2022-09-15T14:39:37.352Z,3.70
2022-09-15T14:42:42.439Z,3.63
2022-09-15T14:45:57.746Z,3.13
2022-09-15T14:49:11.258Z,3.50
2022-09-15T14:52:24.724Z,3.40
2022-09-15T14:55:30.071Z,3.63
2022-09-15T14:58:36.897Z,3.23
2022-09-15T15:01:41.809Z,3.20
2022-09-15T15:04:52.572Z,3.63
2022-09-15T15:07:56.333Z,3.50
2022-09-15T15:11:00.363Z,3.50
2022-09-15T15:14:09.032Z,3.90
2022-09-15T15:17:27.219Z,3.60
2022-09-15T15:20:31.514Z,3.13
2022-09-15T15:23:34.237Z,3.10
2022-09-15T15:26:38.688Z,3.60
2022-09-15T15:29:44.080Z,3.50
2022-09-15T15:32:47.068Z,3.70
2022-09-15T15:36:03.052Z,3.60
2022-09-15T15:39:08.462Z,3.70
2022-09-15T15:42:17.076Z,3.33
2022-09-15T15:45:24.699Z,3.00
2022-09-15T15:48:31.737Z,2.70
2022-09-15T15:51:40.956Z,3.23
2022-09-15T15:54:43.751Z,2.90
2022-09-15T15:57:48.580Z,2.77
2022-09-15T16:00:52.746Z,2.97
2022-09-15T16:03:55.767Z,2.90
2022-09-15T16:06:59.828Z,3.20
2022-09-15T16:10:03.289Z,2.87
2022-09-15T16:13:06.400Z,2.63
2022-09-15T16:16:16.082Z,2.70
2022-09-15T16:19:18.746Z,2.77
2022-09-15T16:22:22.857Z,2.43
2022-09-15T16:25:32.980Z,2.50
2022-09-15T16:28:35.605Z,2.60
2022-09-15T16:31:39.376Z,2.80
2022-09-15T16:34:42.101Z,3.00
2022-09-15T16:37:46.397Z,2.67
2022-09-15T16:40:51.105Z,2.83
2022-09-15T16:43:56.170Z,2.60
2022-09-15T16:46:58.977Z,2.90
2022-09-15T16:50:01.745Z,2.90
2022-09-15T16:53:05.996Z,3.30
2022-09-15T16:56:12.028Z,3.07
2022-09-15T16:59:14.770Z,2.90
2022-09-15T17:02:19.263Z,3.40
2022-09-15T17:05:28.010Z,3.30
2022-09-15T17:08:33.940Z,3.10
2022-09-15T17:11:36.685Z,3.33
2022-09-15T17:14:39.386Z,3.60
2022-09-15T17:17:42.138Z,3.60
2022-09-15T17:20:46.020Z,3.43
2022-09-15T17:23:51.280Z,3.70
2022-09-15T17:26:54.017Z,3.40
2022-09-15T17:29:56.668Z,3.80
2022-09-15T17:33:05.342Z,3.67
2022-09-15T17:36:08.390Z,3.83
2022-09-15T17:39:12.377Z,3.70
2022-09-15T17:42:14.994Z,3.63
2022-09-15T17:45:22.113Z,3.90
2022-09-15T17:48:25.306Z,3.87
2022-09-15T17:51:28.220Z,4.00
2022-09-15T17:54:32.500Z,4.40
2022-09-15T17:57:35.116Z,4.90
2022-09-15T18:00:39.696Z,5.30
2022-09-15T18:03:44.552Z,4.67
2022-09-15T18:06:47.187Z,5.40
2022-09-15T18:09:51.326Z,5.17
2022-09-15T18:12:55.624Z,5.03
2022-09-15T18:15:59.526Z,5.07
2022-09-15T18:19:02.210Z,5.00
2022-09-15T18:22:05.073Z,5.17
2022-09-15T18:25:16.668Z,4.67
2022-09-15T18:28:19.960Z,4.60
2022-09-15T18:31:23.045Z,5.60
2022-09-15T18:34:25.747Z,4.33
2022-09-15T18:37:28.518Z,4.43
2022-09-15T18:40:32.606Z,4.00
2022-09-15T18:43:35.250Z,4.70
2022-09-15T18:46:39.327Z,4.87
2022-09-15T18:49:41.996Z,4.50
2022-09-15T18:52:45.215Z,4.80
2022-09-15T18:55:49.274Z,4.60
2022-09-15T18:58:53.386Z,5.00
2022-09-15T19:01:56.751Z,4.90
2022-09-15T19:04:59.470Z,4.40
2022-09-15T19:08:04.486Z,4.57
2022-09-15T19:11:09.272Z,4.23
2022-09-15T19:14:11.936Z,4.60
2022-09-15T19:17:15.968Z,5.63
2022-09-15T19:20:19.423Z,7.00
2022-09-15T19:23:22.500Z,4.70
2022-09-15T19:26:28.834Z,4.67
2022-09-15T19:29:35.416Z,4.30
2022-09-15T19:32:39.073Z,4.87
2022-09-15T19:35:46.152Z,4.77
2022-09-15T19:38:48.952Z,4.70
2022-09-15T19:41:53.020Z,4.73
2022-09-15T19:44:55.712Z,4.70
2022-09-15T19:47:58.413Z,4.53
2022-09-15T19:51:01.470Z,5.03
2022-09-15T19:54:04.438Z,4.80
2022-09-15T19:57:08.755Z,4.80
2022-09-15T20:00:14.653Z,4.70
2022-09-15T20:03:17.333Z,4.60
2022-09-15T20:06:20.159Z,4.43
2022-09-15T20:09:23.702Z,4.90
2022-09-15T20:12:28.612Z,4.77
2022-09-15T20:15:31.759Z,4.70
2022-09-15T20:18:36.562Z,4.60
2022-09-15T20:21:56.070Z,4.80
2022-09-15T20:24:58.806Z,5.10
2022-09-15T20:28:02.991Z,5.17
2022-09-15T20:31:08.638Z,4.90
2022-09-15T20:34:11.763Z,4.43
2022-09-15T20:37:14.418Z,5.00
2022-09-15T20:40:17.261Z,5.30
2022-09-15T20:43:21.619Z,5.50
2022-09-15T20:46:25.175Z,5.33
2022-09-15T20:49:28.039Z,5.00
2022-09-15T20:52:35.906Z,4.67
2022-09-15T20:55:40.954Z,5.20
2022-09-15T20:58:44.874Z,4.80
2022-09-15T21:01:48.059Z,5.83
2022-09-15T21:04:50.673Z,5.40
2022-09-15T21:07:53.454Z,4.90
2022-09-15T21:10:56.751Z,5.23
2022-09-15T21:14:01.628Z,5.47
2022-09-15T21:17:04.339Z,5.37
2022-09-15T21:20:08.147Z,5.37
2022-09-15T21:23:11.423Z,5.53
2022-09-15T21:26:15.590Z,5.60
2022-09-15T21:29:20.061Z,6.30
2022-09-15T21:32:23.179Z,6.17
2022-09-15T21:35:25.847Z,6.10
2022-09-15T21:38:28.490Z,6.53
2022-09-15T21:41:31.155Z,6.90
2022-09-15T21:44:35.652Z,5.93
2022-09-15T21:47:38.267Z,6.17
2022-09-15T21:50:50.318Z,6.90
2022-09-15T21:53:54.353Z,7.33
2022-09-15T21:56:57.471Z,7.27
2022-09-15T22:00:01.455Z,6.70
2022-09-15T22:03:04.095Z,7.20
2022-09-15T22:06:07.390Z,6.50
2022-09-15T22:09:13.892Z,6.67
2022-09-15T22:12:17.164Z,6.30
2022-09-15T22:15:21.703Z,6.43
2022-09-15T22:18:24.374Z,6.17
2022-09-15T22:21:29.190Z,6.60
2022-09-15T22:24:32.338Z,5.70
2022-09-15T22:27:35.003Z,6.50
2022-09-15T22:30:38.971Z,6.20
2022-09-15T22:33:42.391Z,6.60
2022-09-15T22:36:45.542Z,6.00
2022-09-15T22:39:58.798Z,6.20
2022-09-15T22:43:01.983Z,5.90
2022-09-15T22:46:07.270Z,4.90
2022-09-15T22:49:10.011Z,5.30
2022-09-15T22:52:13.275Z,4.73
2022-09-15T22:55:16.495Z,4.50
2022-09-15T22:58:19.635Z,3.70
2022-09-15T23:01:25.275Z,3.67
2022-09-15T23:04:28.161Z,3.50
2022-09-15T23:07:31.053Z,4.17
2022-09-15T23:10:34.010Z,3.87
2022-09-15T23:13:37.368Z,5.00
2022-09-15T23:16:42.182Z,5.50
2022-09-15T23:19:44.824Z,5.43
2022-09-15T23:22:47.874Z,5.20
2022-09-15T23:25:50.734Z,5.53
2022-09-15T23:28:54.722Z,6.10
2022-09-15T23:31:58.809Z,6.67
2022-09-15T23:35:01.490Z,6.60
2022-09-15T23:38:04.318Z,5.73
2022-09-15T23:41:07.980Z,6.00
2022-09-15T23:44:11.226Z,5.47
2022-09-15T23:47:15.206Z,5.40
2022-09-15T23:50:17.965Z,5.30
2022-09-15T23:53:20.616Z,4.40
2022-09-15T23:56:23.575Z,4.03
2022-09-15T23:59:26.855Z,4.17
